sensor_id;sensor_type;location;lat;lon;timestamp;pressure;altitude;pressure_sealevel;temperature;humidity
3206;BME280;1615;53.602;11.418;2023-04-06T00:01:16;101671.53;;;3.79;100.00
3206;BME280;1615;53.602;11.418;2023-04-06T00:03:42;101663.41;;;3.79;100.00
3206;BME280;1615;53.602;11.418;2023-04-06T00:06:07;101658.44;;;3.76;100.00
3206;BME280;1615;53.602;11.418;2023-04-06T00:08:32;101661.38;;;3.75;100.00
3206;BME280;1615;53.602;11.418;2023-04-06T00:10:58;101654.88;;;3.76;100.00
3206;BME280;1615;53.602;11.418;2023-04-06T00:13:23;101658.66;;;3.75;100.00
3206;BME280;1615;53.602;11.418;2023-04-06T00:15:48;101655.94;;;3.75;100.00
3206;BME280;1615;53.602;11.418;2023-04-06T00:18:14;101654.44;;;3.79;100.00
3206;BME280;1615;53.602;11.418;2023-04-06T00:20:39;101655.94;;;3.75;100.00
3206;BME280;1615;53.602;11.418;2023-04-06T00:23:05;101647.66;;;3.70;100.00
3206;BME280;1615;53.602;11.418;2023-04-06T00:25:30;101646.47;;;3.66;100.00
3206;BME280;1615;53.602;11.418;2023-04-06T00:27:56;101646.47;;;3.66;100.00
3206;BME280;1615;53.602;11.418;2023-04-06T00:30:21;101654.44;;;3.61;100.00
3206;BME280;1615;53.602;11.418;2023-04-06T00:32:46;101646.78;;;3.58;100.00
3206;BME280;1615;53.602;11.418;2023-04-06T00:35:12;101646.78;;;3.58;100.00
3206;BME280;1615;53.602;11.418;2023-04-06T00:37:37;101649.94;;;3.55;100.00
3206;BME280;1615;53.602;11.418;2023-04-06T00:40:03;101644.34;;;3.50;100.00
3206;BME280;1615;53.602;11.418;2023-04-06T00:42:31;101541.75;;;2.81;100.00
3206;BME280;1615;53.602;11.418;2023-04-06T00:45:01;101646.31;;;3.43;100.00
3206;BME280;1615;53.602;11.418;2023-04-06T00:47:26;101643.59;;;3.43;100.00
3206;BME280;1615;53.602;11.418;2023-04-06T00:49:52;101611.53;;;3.22;100.00
3206;BME280;1615;53.602;11.418;2023-04-06T00:52:18;101574.19;;;3.06;100.00
3206;BME280;1615;53.602;11.418;2023-04-06T00:54:44;101645.41;;;3.49;100.00
3206;BME280;1615;53.602;11.418;2023-04-06T00:57:13;101648.97;;;3.49;100.00
3206;BME280;1615;53.602;11.418;2023-04-06T00:59:39;101575.41;;;3.10;100.00
3206;BME280;1615;53.602;11.418;2023-04-06T01:02:08;101416.56;;;2.07;100.00
3206;BME280;1615;53.602;11.418;2023-04-06T01:04:34;101641.63;;;3.50;100.00
3206;BME280;1615;53.602;11.418;2023-04-06T01:07:00;101637.28;;;3.49;100.00
3206;BME280;1615;53.602;11.418;2023-04-06T01:09:29;101638.34;;;3.48;100.00
3206;BME280;1615;53.602;11.418;2023-04-06T01:11:56;101643.75;;;3.48;100.00
3206;BME280;1615;53.602;11.418;2023-04-06T01:14:22;101653.75;;;3.47;100.00
3206;BME280;1615;53.602;11.418;2023-04-06T01:16:48;101608.28;;;3.31;100.00
3206;BME280;1615;53.602;11.418;2023-04-06T01:19:13;101653.97;;;3.46;100.00
3206;BME280;1615;53.602;11.418;2023-04-06T01:21:40;101634.63;;;3.42;100.00
3206;BME280;1615;53.602;11.418;2023-04-06T01:24:06;101633.81;;;3.42;100.00
3206;BME280;1615;53.602;11.418;2023-04-06T01:26:32;101633.81;;;3.42;100.00
3206;BME280;1615;53.602;11.418;2023-04-06T01:28:57;101631.72;;;3.44;100.00
3206;BME280;1615;53.602;11.418;2023-04-06T01:31:23;101548.91;;;2.94;100.00
3206;BME280;1615;53.602;11.418;2023-04-06T01:33:49;101633.50;;;3.50;100.00
3206;BME280;1615;53.602;11.418;2023-04-06T01:36:15;101639.56;;;3.52;100.00
3206;BME280;1615;53.602;11.418;2023-04-06T01:38:41;101636.59;;;3.53;100.00
3206;BME280;1615;53.602;11.418;2023-04-06T01:41:09;101473.06;;;2.58;100.00
3206;BME280;1615;53.602;11.418;2023-04-06T01:43:34;101635.69;;;3.59;100.00
3206;BME280;1615;53.602;11.418;2023-04-06T01:46:00;101638.41;;;3.59;100.00
3206;BME280;1615;53.602;11.418;2023-04-06T01:48:29;101633.97;;;3.65;100.00
3206;BME280;1615;53.602;11.418;2023-04-06T01:50:54;101632.69;;;3.67;100.00
3206;BME280;1615;53.602;11.418;2023-04-06T01:53:20;101638.03;;;3.74;100.00
3206;BME280;1615;53.602;11.418;2023-04-06T01:55:45;101651.97;;;3.77;100.00
3206;BME280;1615;53.602;11.418;2023-04-06T01:58:11;101593.31;;;3.47;100.00
3206;BME280;1615;53.602;11.418;2023-04-06T02:00:37;101630.41;;;3.82;100.00
3206;BME280;1615;53.602;11.418;2023-04-06T02:03:02;101629.56;;;3.82;100.00
3206;BME280;1615;53.602;11.418;2023-04-06T02:05:29;101638.78;;;3.81;100.00
3206;BME280;1615;53.602;11.418;2023-04-06T02:07:55;101632.13;;;3.77;100.00
3206;BME280;1615;53.602;11.418;2023-04-06T02:10:20;101629.91;;;3.74;100.00
3206;BME280;1615;53.602;11.418;2023-04-06T02:12:46;101631.41;;;3.70;100.00
3206;BME280;1615;53.602;11.418;2023-04-06T02:15:11;101523.00;;;2.98;100.00
3206;BME280;1615;53.602;11.418;2023-04-06T02:17:38;101631.63;;;3.68;100.00
3206;BME280;1615;53.602;11.418;2023-04-06T02:20:04;101625.50;;;3.73;100.00
3206;BME280;1615;53.602;11.418;2023-04-06T02:22:29;101633.19;;;3.76;100.00
3206;BME280;1615;53.602;11.418;2023-04-06T02:24:55;101628.84;;;3.75;100.00
3206;BME280;1615;53.602;11.418;2023-04-06T02:27:20;101633.06;;;3.71;100.00
3206;BME280;1615;53.602;11.418;2023-04-06T02:29:45;101623.97;;;3.65;100.00
3206;BME280;1615;53.602;11.418;2023-04-06T02:32:11;101628.97;;;3.62;100.00
3206;BME280;1615;53.602;11.418;2023-04-06T02:34:36;101635.69;;;3.59;100.00
3206;BME280;1615;53.602;11.418;2023-04-06T02:37:01;101632.38;;;3.57;100.00
3206;BME280;1615;53.602;11.418;2023-04-06T02:39:27;101627.41;;;3.54;100.00
3206;BME280;1615;53.602;11.418;2023-04-06T02:41:52;101629.75;;;3.51;100.00
3206;BME280;1615;53.602;11.418;2023-04-06T02:44:21;101630.81;;;3.50;100.00
3206;BME280;1615;53.602;11.418;2023-04-06T02:46:46;101629.84;;;3.44;100.00
3206;BME280;1615;53.602;11.418;2023-04-06T02:49:11;101622.50;;;3.45;100.00
3206;BME280;1615;53.602;11.418;2023-04-06T02:51:36;101626.13;;;3.39;100.00
3206;BME280;1615;53.602;11.418;2023-04-06T02:54:02;101625.16;;;3.33;100.00
3206;BME280;1615;53.602;11.418;2023-04-06T02:56:27;101632.09;;;3.29;100.00
3206;BME280;1615;53.602;11.418;2023-04-06T02:58:52;101631.03;;;3.30;100.00
3206;BME280;1615;53.602;11.418;2023-04-06T03:01:18;101632.03;;;3.36;100.00
3206;BME280;1615;53.602;11.418;2023-04-06T03:03:43;101629.00;;;3.44;100.00
3206;BME280;1615;53.602;11.418;2023-04-06T03:06:08;101632.44;;;3.51;100.00
3206;BME280;1615;53.602;11.418;2023-04-06T03:08:34;101498.34;;;2.70;100.00
3206;BME280;1615;53.602;11.418;2023-04-06T03:11:00;101632.22;;;3.52;100.00
3206;BME280;1615;53.602;11.418;2023-04-06T03:13:25;101625.75;;;3.53;100.00
3206;BME280;1615;53.602;11.418;2023-04-06T03:15:50;101632.81;;;3.54;100.00
3206;BME280;1615;53.602;11.418;2023-04-06T03:18:20;101626.59;;;3.54;100.00
3206;BME280;1615;53.602;11.418;2023-04-06T03:20:45;101630.25;;;3.59;100.00
3206;BME280;1615;53.602;11.418;2023-04-06T03:23:12;101628.53;;;3.65;100.00
3206;BME280;1615;53.602;11.418;2023-04-06T03:25:37;101628.09;;;3.68;100.00
3206;BME280;1615;53.602;11.418;2023-04-06T03:28:04;101630.94;;;3.73;100.00
3206;BME280;1615;53.602;11.418;2023-04-06T03:30:30;101629.44;;;3.77;100.00
3206;BME280;1615;53.602;11.418;2023-04-06T03:32:55;101625.91;;;3.76;100.00
3206;BME280;1615;53.602;11.418;2023-04-06T03:35:20;101624.22;;;3.75;100.00
3206;BME280;1615;53.602;11.418;2023-04-06T03:37:46;101632.59;;;3.74;100.00
3206;BME280;1615;53.602;11.418;2023-04-06T03:40:11;101642.25;;;3.70;100.00
3206;BME280;1615;53.602;11.418;2023-04-06T03:42:36;101629.59;;;3.64;100.00
3206;BME280;1615;53.602;11.418;2023-04-06T03:45:02;101612.88;;;3.49;100.00
3206;BME280;1615;53.602;11.418;2023-04-06T03:47:27;101632.00;;;3.54;100.00
3206;BME280;1615;53.602;11.418;2023-04-06T03:49:52;101617.56;;;3.42;100.00
3206;BME280;1615;53.602;11.418;2023-04-06T03:52:18;101632.00;;;3.54;100.00
3206;BME280;1615;53.602;11.418;2023-04-06T03:54:43;101630.72;;;3.56;100.00
3206;BME280;1615;53.602;11.418;2023-04-06T03:57:08;101637.59;;;3.59;100.00
3206;BME280;1615;53.602;11.418;2023-04-06T03:59:33;101634.41;;;3.62;100.00
3206;BME280;1615;53.602;11.418;2023-04-06T04:01:59;101609.66;;;3.40;100.00
3206;BME280;1615;53.602;11.418;2023-04-06T04:04:24;101634.41;;;3.62;100.00
3206;BME280;1615;53.602;11.418;2023-04-06T04:06:50;101614.31;;;3.51;100.00
3206;BME280;1615;53.602;11.418;2023-04-06T04:09:15;101638.81;;;3.63;100.00
3206;BME280;1615;53.602;11.418;2023-04-06T04:11:40;101633.97;;;3.65;100.00
3206;BME280;1615;53.602;11.418;2023-04-06T04:14:06;101636.09;;;3.63;100.00
3206;BME280;1615;53.602;11.418;2023-04-06T04:16:31;101649.03;;;3.61;100.00
3206;BME280;1615;53.602;11.418;2023-04-06T04:18:56;101515.13;;;2.78;100.00
3206;BME280;1615;53.602;11.418;2023-04-06T04:21:23;101653.22;;;3.57;100.00
3206;BME280;1615;53.602;11.418;2023-04-06T04:23:50;101650.41;;;3.52;100.00
3206;BME280;1615;53.602;11.418;2023-04-06T04:26:16;101645.25;;;3.44;100.00
3206;BME280;1615;53.602;11.418;2023-04-06T04:28:41;101610.78;;;3.15;100.00
3206;BME280;1615;53.602;11.418;2023-04-06T04:31:06;101648.50;;;3.34;100.00
3206;BME280;1615;53.602;11.418;2023-04-06T04:33:31;101650.00;;;3.30;100.00
3206;BME280;1615;53.602;11.418;2023-04-06T04:35:57;101650.22;;;3.29;100.00
3206;BME280;1615;53.602;11.418;2023-04-06T04:38:22;101657.81;;;3.20;100.00
3206;BME280;1615;53.602;11.418;2023-04-06T04:40:47;101647.91;;;3.08;100.00
3206;BME280;1615;53.602;11.418;2023-04-06T04:43:13;101625.63;;;2.88;100.00
3206;BME280;1615;53.602;11.418;2023-04-06T04:45:38;101647.22;;;2.94;100.00
3206;BME280;1615;53.602;11.418;2023-04-06T04:48:03;101757.31;;;3.07;100.00
3206;BME280;1615;53.602;11.418;2023-04-06T04:50:32;101648.38;;;3.05;100.00
3206;BME280;1615;53.602;11.418;2023-04-06T04:53:00;101625.69;;;2.81;100.00
3206;BME280;1615;53.602;11.418;2023-04-06T04:55:25;101673.06;;;2.90;100.00
3206;BME280;1615;53.602;11.418;2023-04-06T04:57:51;101653.97;;;2.85;100.00
3206;BME280;1615;53.602;11.418;2023-04-06T05:00:16;101654.78;;;2.86;100.00
3206;BME280;1615;53.602;11.418;2023-04-06T05:02:45;101643.06;;;2.92;100.00
3206;BME280;1615;53.602;11.418;2023-04-06T05:05:10;101656.34;;;3.00;100.00
3206;BME280;1615;53.602;11.418;2023-04-06T05:07:35;101657.56;;;3.04;100.00
3206;BME280;1615;53.602;11.418;2023-04-06T05:10:01;101661.78;;;3.18;100.00
3206;BME280;1615;53.602;11.418;2023-04-06T05:12:26;101617.03;;;2.91;100.00
3206;BME280;1615;53.602;11.418;2023-04-06T05:14:53;101670.66;;;3.25;100.00
3206;BME280;1615;53.602;11.418;2023-04-06T05:17:18;101659.41;;;3.28;100.00
3206;BME280;1615;53.602;11.418;2023-04-06T05:19:44;101640.56;;;3.15;100.00
3206;BME280;1615;53.602;11.418;2023-04-06T05:22:09;101663.16;;;3.27;100.00
3206;BME280;1615;53.602;11.418;2023-04-06T05:24:35;101657.28;;;3.30;100.00
3206;BME280;1615;53.602;11.418;2023-04-06T05:27:00;101657.59;;;3.40;100.00
3206;BME280;1615;53.602;11.418;2023-04-06T05:29:25;101662.03;;;3.52;100.00
3206;BME280;1615;53.602;11.418;2023-04-06T05:31:51;101646.31;;;3.43;100.00
3206;BME280;1615;53.602;11.418;2023-04-06T05:34:16;101663.41;;;3.61;100.00
3206;BME280;1615;53.602;11.418;2023-04-06T05:36:41;101672.22;;;3.75;100.00
3206;BME280;1615;53.602;11.418;2023-04-06T05:39:07;101662.13;;;3.82;100.00
3206;BME280;1615;53.602;11.418;2023-04-06T05:41:32;101670.41;;;3.87;100.00
3206;BME280;1615;53.602;11.418;2023-04-06T05:43:58;101671.59;;;3.91;100.00
3206;BME280;1615;53.602;11.418;2023-04-06T05:46:23;101672.50;;;4.03;100.00
3206;BME280;1615;53.602;11.418;2023-04-06T05:48:48;101669.47;;;4.11;100.00
3206;BME280;1615;53.602;11.418;2023-04-06T05:51:13;101668.13;;;4.02;100.00
3206;BME280;1615;53.602;11.418;2023-04-06T05:53:39;101668.13;;;4.02;100.00
3206;BME280;1615;53.602;11.418;2023-04-06T05:56:05;101789.13;;;4.03;100.00
3206;BME280;1615;53.602;11.418;2023-04-06T05:58:30;101666.84;;;4.04;100.00
3206;BME280;1615;53.602;11.418;2023-04-06T06:00:59;101616.72;;;3.77;100.00
3206;BME280;1615;53.602;11.418;2023-04-06T06:03:25;101673.97;;;4.17;100.00
3206;BME280;1615;53.602;11.418;2023-04-06T06:05:50;101672.22;;;4.22;100.00
3206;BME280;1615;53.602;11.418;2023-04-06T06:08:15;101666.72;;;4.29;100.00
3206;BME280;1615;53.602;11.418;2023-04-06T06:10:41;101608.16;;;3.92;100.00
3206;BME280;1615;53.602;11.418;2023-04-06T06:13:06;101674.66;;;4.42;100.00
3206;BME280;1615;53.602;11.418;2023-04-06T06:15:32;101678.25;;;4.54;100.00
3206;BME280;1615;53.602;11.418;2023-04-06T06:17:57;101680.28;;;4.58;100.00
3206;BME280;1615;53.602;11.418;2023-04-06T06:20:25;101653.06;;;4.47;100.00
3206;BME280;1615;53.602;11.418;2023-04-06T06:22:52;101696.22;;;4.66;100.00
3206;BME280;1615;53.602;11.418;2023-04-06T06:25:17;101681.47;;;4.62;100.00
3206;BME280;1615;53.602;11.418;2023-04-06T06:27:43;101677.91;;;4.62;100.00
3206;BME280;1615;53.602;11.418;2023-04-06T06:30:08;101680.19;;;4.65;100.00
3206;BME280;1615;53.602;11.418;2023-04-06T06:32:34;101274.38;;;2.36;100.00
3206;BME280;1615;53.602;11.418;2023-04-06T06:34:59;101684.72;;;4.94;100.00
3206;BME280;1615;53.602;11.418;2023-04-06T06:37:25;101681.66;;;5.02;100.00
3206;BME280;1615;53.602;11.418;2023-04-06T06:39:50;101679.66;;;5.09;100.00
3206;BME280;1615;53.602;11.418;2023-04-06T06:42:15;101685.81;;;5.04;100.00
3206;BME280;1615;53.602;11.418;2023-04-06T06:44:41;101677.06;;;5.14;100.00
3206;BME280;1615;53.602;11.418;2023-04-06T06:47:06;101677.88;;;5.26;100.00
3206;BME280;1615;53.602;11.418;2023-04-06T06:49:31;101683.56;;;5.36;100.00
3206;BME280;1615;53.602;11.418;2023-04-06T06:51:57;101682.16;;;5.45;100.00
3206;BME280;1615;53.602;11.418;2023-04-06T06:54:22;101673.63;;;5.53;100.00
3206;BME280;1615;53.602;11.418;2023-04-06T06:56:47;101673.84;;;5.63;100.00
3206;BME280;1615;53.602;11.418;2023-04-06T06:59:12;101676.78;;;5.73;100.00
3206;BME280;1615;53.602;11.418;2023-04-06T07:01:38;101754.66;;;5.85;100.00
3206;BME280;1615;53.602;11.418;2023-04-06T07:04:03;101680.78;;;5.93;100.00
3206;BME280;1615;53.602;11.418;2023-04-06T07:06:29;101675.34;;;6.05;100.00
3206;BME280;1615;53.602;11.418;2023-04-06T07:08:54;101671.50;;;6.17;100.00
3206;BME280;1615;53.602;11.418;2023-04-06T07:11:19;101659.78;;;6.17;100.00
3206;BME280;1615;53.602;11.418;2023-04-06T07:13:44;101672.81;;;6.43;100.00
3206;BME280;1615;53.602;11.418;2023-04-06T07:16:10;101672.75;;;6.54;100.00
3206;BME280;1615;53.602;11.418;2023-04-06T07:18:35;101671.88;;;6.65;100.00
3206;BME280;1615;53.602;11.418;2023-04-06T07:21:00;101666.84;;;6.74;100.00
3206;BME280;1615;53.602;11.418;2023-04-06T07:23:26;101672.81;;;6.87;100.00
3206;BME280;1615;53.602;11.418;2023-04-06T07:25:51;101658.41;;;6.92;100.00
3206;BME280;1615;53.602;11.418;2023-04-06T07:28:18;101494.44;;;5.96;100.00
3206;BME280;1615;53.602;11.418;2023-04-06T07:30:43;101659.25;;;7.09;100.00
3206;BME280;1615;53.602;11.418;2023-04-06T07:33:09;101660.56;;;7.23;100.00
3206;BME280;1615;53.602;11.418;2023-04-06T07:35:34;101655.19;;;7.28;100.00
3206;BME280;1615;53.602;11.418;2023-04-06T07:38:01;101655.19;;;7.44;100.00
3206;BME280;1615;53.602;11.418;2023-04-06T07:40:26;101645.28;;;7.60;100.00
3206;BME280;1615;53.602;11.418;2023-04-06T07:42:52;101650.97;;;7.75;100.00
3206;BME280;1615;53.602;11.418;2023-04-06T07:45:18;101649.16;;;7.85;100.00
3206;BME280;1615;53.602;11.418;2023-04-06T07:47:43;101650.94;;;7.96;100.00
3206;BME280;1615;53.602;11.418;2023-04-06T07:50:09;101574.41;;;7.65;100.00
3206;BME280;1615;53.602;11.418;2023-04-06T07:52:35;101649.69;;;8.25;100.00
3206;BME280;1615;53.602;11.418;2023-04-06T07:55:00;101651.72;;;8.35;100.00
3206;BME280;1615;53.602;11.418;2023-04-06T07:57:25;101655.06;;;8.42;97.47
3206;BME280;1615;53.602;11.418;2023-04-06T07:59:51;101628.38;;;8.49;94.85
3206;BME280;1615;53.602;11.418;2023-04-06T08:02:16;101592.38;;;8.30;93.36
3206;BME280;1615;53.602;11.418;2023-04-06T08:04:42;101642.25;;;8.74;92.48
3206;BME280;1615;53.602;11.418;2023-04-06T08:07:08;101535.56;;;8.06;90.84
3206;BME280;1615;53.602;11.418;2023-04-06T08:09:33;101644.63;;;8.92;91.09
3206;BME280;1615;53.602;11.418;2023-04-06T08:11:58;101563.25;;;8.41;88.47
3206;BME280;1615;53.602;11.418;2023-04-06T08:14:23;101502.88;;;8.11;86.19
3206;BME280;1615;53.602;11.418;2023-04-06T08:16:49;101550.75;;;8.50;85.04
3206;BME280;1615;53.602;11.418;2023-04-06T08:19:14;101630.31;;;9.16;87.04
3206;BME280;1615;53.602;11.418;2023-04-06T08:21:42;101647.69;;;9.37;84.14
3206;BME280;1615;53.602;11.418;2023-04-06T08:24:08;101651.00;;;9.39;81.44
3206;BME280;1615;53.602;11.418;2023-04-06T08:26:33;101619.47;;;8.95;81.09
3206;BME280;1615;53.602;11.418;2023-04-06T08:28:58;101643.28;;;9.36;80.31
3206;BME280;1615;53.602;11.418;2023-04-06T08:31:24;101631.59;;;9.50;80.07
3206;BME280;1615;53.602;11.418;2023-04-06T08:33:50;101640.13;;;9.59;80.30
3206;BME280;1615;53.602;11.418;2023-04-06T08:36:16;101581.97;;;9.32;80.41
3206;BME280;1615;53.602;11.418;2023-04-06T08:38:47;101543.84;;;9.10;80.06
3206;BME280;1615;53.602;11.418;2023-04-06T08:41:14;101638.56;;;9.68;80.63
3206;BME280;1615;53.602;11.418;2023-04-06T08:43:59;101641.31;;;9.73;80.62
3206;BME280;1615;53.602;11.418;2023-04-06T08:46:25;101641.91;;;9.80;80.51
3206;BME280;1615;53.602;11.418;2023-04-06T08:48:55;101637.31;;;9.90;77.71
3206;BME280;1615;53.602;11.418;2023-04-06T08:51:23;101631.56;;;9.97;76.34
3206;BME280;1615;53.602;11.418;2023-04-06T08:53:49;101637.41;;;10.05;74.39
3206;BME280;1615;53.602;11.418;2023-04-06T08:56:15;101468.59;;;9.08;71.27
3206;BME280;1615;53.602;11.418;2023-04-06T08:58:40;101639.63;;;10.18;68.72
3206;BME280;1615;53.602;11.418;2023-04-06T09:01:08;101636.06;;;10.23;66.60
3206;BME280;1615;53.602;11.418;2023-04-06T09:03:37;101631.69;;;10.27;67.53
3206;BME280;1615;53.602;11.418;2023-04-06T09:06:04;101628.47;;;10.40;66.14
3206;BME280;1615;53.602;11.418;2023-04-06T09:08:29;101627.06;;;10.42;63.25
3206;BME280;1615;53.602;11.418;2023-04-06T09:10:55;101630.91;;;10.46;63.77
3206;BME280;1615;53.602;11.418;2023-04-06T09:13:20;101626.78;;;10.44;60.80
3206;BME280;1615;53.602;11.418;2023-04-06T09:15:45;101631.75;;;10.47;61.47
3206;BME280;1615;53.602;11.418;2023-04-06T09:18:11;101614.75;;;10.35;60.56
3206;BME280;1615;53.602;11.418;2023-04-06T09:20:36;101616.13;;;10.52;60.41
3206;BME280;1615;53.602;11.418;2023-04-06T09:23:01;101623.00;;;10.70;59.92
3206;BME280;1615;53.602;11.418;2023-04-06T09:25:27;101616.97;;;10.78;59.35
3206;BME280;1615;53.602;11.418;2023-04-06T09:28:03;101611.50;;;10.88;58.43
3206;BME280;1615;53.602;11.418;2023-04-06T09:30:28;101614.78;;;11.00;59.59
3206;BME280;1615;53.602;11.418;2023-04-06T09:32:56;101613.16;;;10.99;58.39
3206;BME280;1615;53.602;11.418;2023-04-06T09:35:23;101605.44;;;10.91;57.50
3206;BME280;1615;53.602;11.418;2023-04-06T09:37:50;101501.78;;;10.18;57.17
3206;BME280;1615;53.602;11.418;2023-04-06T09:40:17;101601.59;;;11.07;55.81
3206;BME280;1615;53.602;11.418;2023-04-06T09:42:47;101599.69;;;11.17;53.75
3206;BME280;1615;53.602;11.418;2023-04-06T09:45:13;101596.09;;;11.22;52.42
3206;BME280;1615;53.602;11.418;2023-04-06T09:47:43;101591.13;;;11.29;49.81
3206;BME280;1615;53.602;11.418;2023-04-06T09:50:10;101594.97;;;11.33;48.47
3206;BME280;1615;53.602;11.418;2023-04-06T09:52:50;101599.44;;;10.94;48.18
3206;BME280;1615;53.602;11.418;2023-04-06T09:55:44;101595.84;;;11.08;49.36
3206;BME280;1615;53.602;11.418;2023-04-06T09:58:16;101607.34;;;10.95;48.58
3206;BME280;1615;53.602;11.418;2023-04-06T10:01:05;101598.31;;;11.00;48.99
3206;BME280;1615;53.602;11.418;2023-04-06T10:03:37;101596.63;;;11.19;49.62
3206;BME280;1615;53.602;11.418;2023-04-06T10:06:11;101592.78;;;11.30;48.58
3206;BME280;1615;53.602;11.418;2023-04-06T10:08:37;101587.84;;;11.32;47.74
3206;BME280;1615;53.602;11.418;2023-04-06T10:11:07;101588.38;;;11.29;46.84
3206;BME280;1615;53.602;11.418;2023-04-06T10:13:33;101579.91;;;11.15;43.12
3206;BME280;1615;53.602;11.418;2023-04-06T10:15:59;101588.16;;;11.10;44.69
3206;BME280;1615;53.602;11.418;2023-04-06T10:18:25;101542.34;;;10.86;44.84
3206;BME280;1615;53.602;11.418;2023-04-06T10:20:57;101600.22;;;11.24;46.05
3206;BME280;1615;53.602;11.418;2023-04-06T10:23:48;101590.03;;;11.25;46.23
3206;BME280;1615;53.602;11.418;2023-04-06T10:26:15;101597.19;;;11.26;46.52
3206;BME280;1615;53.602;11.418;2023-04-06T10:28:42;101584.53;;;11.30;45.44
3206;BME280;1615;53.602;11.418;2023-04-06T10:31:08;101528.09;;;11.04;45.61
3206;BME280;1615;53.602;11.418;2023-04-06T10:33:34;101611.16;;;11.44;45.21
3206;BME280;1615;53.602;11.418;2023-04-06T10:36:32;101590.03;;;11.25;45.82
3206;BME280;1615;53.602;11.418;2023-04-06T10:39:01;101566.25;;;10.80;45.93
3206;BME280;1615;53.602;11.418;2023-04-06T10:41:46;101644.91;;;11.45;46.50
3206;BME280;1615;53.602;11.418;2023-04-06T10:44:23;101426.16;;;10.52;44.79
3206;BME280;1615;53.602;11.418;2023-04-06T10:46:56;101583.16;;;11.32;45.17
3206;BME280;1615;53.602;11.418;2023-04-06T10:49:22;101585.63;;;11.39;44.41
3206;BME280;1615;53.602;11.418;2023-04-06T10:51:51;101452.19;;;10.49;43.15
3206;BME280;1615;53.602;11.418;2023-04-06T10:54:19;101580.09;;;11.49;45.12
3206;BME280;1615;53.602;11.418;2023-04-06T10:56:45;101577.34;;;11.64;45.74
3206;BME280;1615;53.602;11.418;2023-04-06T10:59:11;101578.38;;;11.78;46.31
3206;BME280;1615;53.602;11.418;2023-04-06T11:01:36;101572.56;;;11.89;45.52
3206;BME280;1615;53.602;11.418;2023-04-06T11:04:01;101582.13;;;11.97;44.67
3206;BME280;1615;53.602;11.418;2023-04-06T11:06:29;101577.66;;;12.11;45.58
3206;BME280;1615;53.602;11.418;2023-04-06T11:08:57;101541.00;;;11.82;44.03
3206;BME280;1615;53.602;11.418;2023-04-06T11:11:23;101440.75;;;11.26;45.25
3206;BME280;1615;53.602;11.418;2023-04-06T11:13:58;101565.34;;;12.03;46.59
3206;BME280;1615;53.602;11.418;2023-04-06T11:16:25;101573.53;;;12.13;46.00
3206;BME280;1615;53.602;11.418;2023-04-06T11:19:05;101522.75;;;12.01;46.27
3206;BME280;1615;53.602;11.418;2023-04-06T11:21:40;101567.38;;;11.78;44.67
3206;BME280;1615;53.602;11.418;2023-04-06T11:24:15;101572.38;;;11.56;45.21
3206;BME280;1615;53.602;11.418;2023-04-06T11:29:21;101532.31;;;11.60;44.60
3206;BME280;1615;53.602;11.418;2023-04-06T11:31:47;101148.03;;;9.36;45.27
3206;BME280;1615;53.602;11.418;2023-04-06T11:34:19;101557.44;;;11.87;44.98
3206;BME280;1615;53.602;11.418;2023-04-06T11:36:46;101536.41;;;11.57;44.99
3206;BME280;1615;53.602;11.418;2023-04-06T11:39:12;101567.44;;;11.58;44.94
3206;BME280;1615;53.602;11.418;2023-04-06T11:41:38;101565.16;;;11.85;45.51
3206;BME280;1615;53.602;11.418;2023-04-06T11:44:05;101560.44;;;11.90;44.61
3206;BME280;1615;53.602;11.418;2023-04-06T11:46:30;101554.91;;;12.00;44.39
3206;BME280;1615;53.602;11.418;2023-04-06T11:49:00;101545.88;;;11.95;45.35
3206;BME280;1615;53.602;11.418;2023-04-06T11:51:26;101542.41;;;11.74;45.49
3206;BME280;1615;53.602;11.418;2023-04-06T11:53:52;101552.03;;;11.72;45.39
3206;BME280;1615;53.602;11.418;2023-04-06T11:56:25;101549.84;;;11.74;44.76
3206;BME280;1615;53.602;11.418;2023-04-06T11:58:51;101556.34;;;11.88;44.47
3206;BME280;1615;53.602;11.418;2023-04-06T12:01:16;101543.06;;;12.05;44.94
3206;BME280;1615;53.602;11.418;2023-04-06T12:03:42;101548.47;;;12.20;44.30
3206;BME280;1615;53.602;11.418;2023-04-06T12:06:10;101539.78;;;12.41;44.62
3206;BME280;1615;53.602;11.418;2023-04-06T12:08:35;101532.97;;;12.34;44.96
3206;BME280;1615;53.602;11.418;2023-04-06T12:11:00;101532.63;;;12.02;44.45
3206;BME280;1615;53.602;11.418;2023-04-06T12:13:25;101535.38;;;12.02;44.58
3206;BME280;1615;53.602;11.418;2023-04-06T12:15:52;101525.59;;;11.86;44.79
3206;BME280;1615;53.602;11.418;2023-04-06T12:18:17;101532.63;;;12.07;47.06
3206;BME280;1615;53.602;11.418;2023-04-06T12:20:43;101526.28;;;12.06;46.00
3206;BME280;1615;53.602;11.418;2023-04-06T12:23:08;101446.63;;;11.53;46.02
3206;BME280;1615;53.602;11.418;2023-04-06T12:25:33;101525.06;;;12.22;44.20
3206;BME280;1615;53.602;11.418;2023-04-06T12:28:02;101525.75;;;12.43;45.10
3206;BME280;1615;53.602;11.418;2023-04-06T12:30:27;101534.97;;;12.57;45.20
3206;BME280;1615;53.602;11.418;2023-04-06T12:32:52;101509.31;;;12.66;45.19
3206;BME280;1615;53.602;11.418;2023-04-06T12:35:18;101522.03;;;12.91;44.75
3206;BME280;1615;53.602;11.418;2023-04-06T12:37:43;101524.22;;;12.89;43.94
3206;BME280;1615;53.602;11.418;2023-04-06T12:40:09;101519.66;;;12.79;43.72
3206;BME280;1615;53.602;11.418;2023-04-06T12:42:36;101512.41;;;12.60;44.04
3206;BME280;1615;53.602;11.418;2023-04-06T12:45:01;101518.59;;;12.42;44.49
3206;BME280;1615;53.602;11.418;2023-04-06T12:47:26;101513.69;;;12.39;45.87
3206;BME280;1615;53.602;11.418;2023-04-06T12:49:52;101396.50;;;11.81;45.53
3206;BME280;1615;53.602;11.418;2023-04-06T12:52:19;101499.50;;;12.27;44.65
3206;BME280;1615;53.602;11.418;2023-04-06T12:54:44;101490.44;;;12.21;45.65
3206;BME280;1615;53.602;11.418;2023-04-06T12:57:09;101504.00;;;12.46;46.23
3206;BME280;1615;53.602;11.418;2023-04-06T12:59:35;101138.91;;;10.39;45.10